createdAt,value
2023-04-02T00:01:17.198Z,5.90
2023-04-02T00:03:44.485Z,5.83
2023-04-02T00:06:30.117Z,5.65
2023-04-02T00:09:04.589Z,5.46
2023-04-02T00:11:35.180Z,5.22
2023-04-02T00:14:03.909Z,5.50
2023-04-02T00:16:31.121Z,5.48
2023-04-02T00:19:03.951Z,5.16
2023-04-02T00:21:38.872Z,5.43
2023-04-02T00:24:21.201Z,5.25
2023-04-02T00:26:53.016Z,4.95
2023-04-02T00:29:20.112Z,4.94
2023-04-02T00:31:49.871Z,4.52
2023-04-02T00:34:38.310Z,4.77
2023-04-02T00:37:05.554Z,4.42
2023-04-02T00:39:39.166Z,4.17
2023-04-02T00:42:06.365Z,4.17
2023-04-02T00:44:45.209Z,4.24
2023-04-02T00:47:24.410Z,4.57
2023-04-02T00:49:58.637Z,4.36
2023-04-02T00:52:29.611Z,4.37
2023-04-02T00:55:06.394Z,4.29
2023-04-02T00:57:33.795Z,4.32
2023-04-02T01:00:09.811Z,4.13
2023-04-02T01:02:40.745Z,4.19
2023-04-02T01:05:16.649Z,4.05
2023-04-02T01:07:58.344Z,4.11
2023-04-02T01:10:39.536Z,4.08
2023-04-02T01:13:19.676Z,3.94
2023-04-02T01:16:19.892Z,3.93
2023-04-02T01:19:01.994Z,3.86
2023-04-02T01:21:43.906Z,3.88
2023-04-02T01:24:13.993Z,3.68
2023-04-02T01:26:50.229Z,3.84
2023-04-02T01:29:27.528Z,3.76
2023-04-02T01:31:57.629Z,3.79
2023-04-02T01:34:26.872Z,3.70
2023-04-02T01:37:14.643Z,3.76
2023-04-02T01:39:53.300Z,3.66
2023-04-02T01:42:25.581Z,3.56
2023-04-02T01:44:54.258Z,3.61
2023-04-02T01:47:27.442Z,3.64
2023-04-02T01:50:01.007Z,3.51
2023-04-02T01:52:40.688Z,3.68
2023-04-02T01:55:13.002Z,3.23
2023-04-02T01:57:46.457Z,3.54
2023-04-02T02:00:15.206Z,3.48
2023-04-02T02:02:43.254Z,3.41
2023-04-02T02:05:14.449Z,3.36
2023-04-02T02:07:42.029Z,3.35
2023-04-02T02:10:15.230Z,3.40
2023-04-02T02:12:44.231Z,3.34
2023-04-02T02:15:19.863Z,3.26
2023-04-02T02:17:47.727Z,3.24
2023-04-02T02:20:14.902Z,3.18
2023-04-02T02:22:47.145Z,3.08
2023-04-02T02:25:30.837Z,3.12
2023-04-02T02:28:12.142Z,3.02
2023-04-02T02:30:56.028Z,3.04
2023-04-02T02:33:25.610Z,3.06
2023-04-02T02:36:03.027Z,3.21
2023-04-02T02:38:42.587Z,2.97
2023-04-02T02:41:26.440Z,2.92
2023-04-02T02:43:56.014Z,3.02
2023-04-02T02:46:24.926Z,2.81
2023-04-02T02:48:55.259Z,2.89
2023-04-02T02:51:29.236Z,2.88
2023-04-02T02:54:03.181Z,2.99
2023-04-02T02:56:33.897Z,3.13
2023-04-02T02:59:01.782Z,3.02
2023-04-02T03:01:31.060Z,2.93
2023-04-02T03:03:57.761Z,3.01
2023-04-02T03:06:24.504Z,3.03
2023-04-02T03:09:02.226Z,3.07
2023-04-02T03:11:36.054Z,3.10
2023-04-02T03:14:14.948Z,3.16
2023-04-02T03:16:47.049Z,3.02
2023-04-02T03:19:28.988Z,3.11
2023-04-02T03:22:03.793Z,3.07
2023-04-02T03:24:47.176Z,3.02
2023-04-02T03:27:19.856Z,3.00
2023-04-02T03:30:03.896Z,2.92
2023-04-02T03:32:35.943Z,2.86
2023-04-02T03:35:19.589Z,2.82
2023-04-02T03:37:52.998Z,2.56
2023-04-02T03:40:24.600Z,2.71
2023-04-02T03:42:55.205Z,2.75
2023-04-02T03:45:33.835Z,2.52
2023-04-02T03:48:07.284Z,2.58
2023-04-02T03:50:36.510Z,2.45
2023-04-02T03:53:04.674Z,2.55
2023-04-02T03:55:36.231Z,2.43
2023-04-02T03:58:20.631Z,2.52
2023-04-02T04:00:52.402Z,2.48
2023-04-02T04:03:42.233Z,2.25
2023-04-02T04:06:15.610Z,2.32
2023-04-02T04:08:50.333Z,2.21
2023-04-02T04:11:22.620Z,2.23
2023-04-02T04:14:15.078Z,2.29
2023-04-02T04:16:49.796Z,2.27
2023-04-02T04:19:29.087Z,2.22
2023-04-02T04:22:10.058Z,2.31
2023-04-02T04:24:39.374Z,2.31
2023-04-02T04:27:09.517Z,2.26
2023-04-02T04:29:51.730Z,2.23
2023-04-02T04:32:27.446Z,2.21
2023-04-02T04:35:08.285Z,2.19
2023-04-02T04:37:40.971Z,2.34
2023-04-02T04:40:28.382Z,2.09
2023-04-02T04:43:00.619Z,2.23
2023-04-02T04:46:12.800Z,2.31
2023-04-02T04:49:25.184Z,2.33
2023-04-02T04:51:56.167Z,2.34
2023-04-02T04:54:26.035Z,2.20
2023-04-02T04:56:58.166Z,2.26
2023-04-02T04:59:39.915Z,2.29
2023-04-02T05:02:12.152Z,2.37
2023-04-02T05:04:41.242Z,2.28
2023-04-02T05:07:25.909Z,2.42
2023-04-02T05:10:06.414Z,2.29
2023-04-02T05:12:51.028Z,2.29
2023-04-02T05:15:42.121Z,2.41
2023-04-02T05:18:16.544Z,2.39
2023-04-02T05:20:56.404Z,2.26
2023-04-02T05:23:34.198Z,2.39
2023-04-02T05:26:09.230Z,2.37
2023-04-02T05:28:46.230Z,2.47
2023-04-02T05:31:19.939Z,2.42
2023-04-02T05:33:49.030Z,2.46
2023-04-02T05:36:24.903Z,2.54
2023-04-02T05:38:53.176Z,2.56
2023-04-02T05:41:27.562Z,2.40
2023-04-02T05:44:07.885Z,2.49
2023-04-02T05:46:40.923Z,2.51
2023-04-02T05:49:13.873Z,2.74
2023-04-02T05:51:45.957Z,2.67
2023-04-02T05:54:23.112Z,2.60
2023-04-02T05:56:56.205Z,2.68
2023-04-02T05:59:30.981Z,2.85
2023-04-02T06:02:03.807Z,2.54
2023-04-02T06:04:44.795Z,2.71
2023-04-02T06:07:16.498Z,2.89
2023-04-02T06:09:49.139Z,2.71
2023-04-02T06:12:35.404Z,2.68
2023-04-02T06:15:01.986Z,2.98
2023-04-02T06:17:28.934Z,2.97
2023-04-02T06:19:58.012Z,3.13
2023-04-02T06:22:32.741Z,3.25
2023-04-02T06:25:05.737Z,3.33
2023-04-02T06:27:34.352Z,3.57
2023-04-02T06:30:06.192Z,4.28
2023-04-02T06:32:33.066Z,5.05
2023-04-02T06:34:59.511Z,5.79
2023-04-02T06:37:37.579Z,6.34
2023-04-02T06:40:26.332Z,6.82
2023-04-02T06:42:59.467Z,7.20
2023-04-02T06:45:33.768Z,7.10
2023-04-02T06:48:02.795Z,7.56
2023-04-02T06:50:37.845Z,8.25
2023-04-02T06:53:09.567Z,7.34
2023-04-02T06:55:48.829Z,7.25
2023-04-02T06:58:17.280Z,7.06
2023-04-02T07:00:46.637Z,8.27
2023-04-02T07:03:16.202Z,8.03
2023-04-02T07:05:43.184Z,8.32
2023-04-02T07:08:09.701Z,9.22
2023-04-02T07:10:36.235Z,10.10
2023-04-02T07:13:02.682Z,9.18
2023-04-02T07:15:29.102Z,9.05
2023-04-02T07:17:59.133Z,9.50
2023-04-02T07:20:31.266Z,9.22
2023-04-02T07:22:58.088Z,8.83
2023-04-02T07:25:26.221Z,8.43
2023-04-02T07:27:53.950Z,8.76
2023-04-02T07:30:20.437Z,9.11
2023-04-02T07:32:46.950Z,9.02
2023-04-02T07:35:13.834Z,8.09
2023-04-02T07:37:40.285Z,7.09
2023-04-02T07:40:18.340Z,7.10
2023-04-02T07:42:45.285Z,6.88
2023-04-02T07:45:12.000Z,7.93
2023-04-02T07:47:38.694Z,7.66
2023-04-02T07:50:05.866Z,8.23
2023-04-02T07:52:32.249Z,7.98
2023-04-02T07:54:58.616Z,7.45
2023-04-02T07:57:24.993Z,7.03
2023-04-02T07:59:51.482Z,7.89
2023-04-02T08:02:21.446Z,7.74
2023-04-02T08:04:48.427Z,7.75
2023-04-02T08:07:14.775Z,7.55
2023-04-02T08:09:41.147Z,7.71
2023-04-02T08:12:07.842Z,7.76
2023-04-02T08:14:34.203Z,8.27
2023-04-02T08:17:00.664Z,8.57
2023-04-02T08:19:28.102Z,8.33
2023-04-02T08:21:55.012Z,7.05
2023-04-02T08:24:21.524Z,9.09
2023-04-02T08:26:49.925Z,9.11
2023-04-02T08:29:16.313Z,8.89
2023-04-02T08:31:42.840Z,9.45
2023-04-02T08:34:09.749Z,8.99
2023-04-02T08:36:38.938Z,8.37
2023-04-02T08:39:10.901Z,7.60
2023-04-02T08:41:44.351Z,7.98
2023-04-02T08:44:16.404Z,8.36
2023-04-02T08:46:45.834Z,9.04
2023-04-02T08:49:19.620Z,8.64
2023-04-02T08:51:47.333Z,8.18
2023-04-02T08:54:29.399Z,8.33
2023-04-02T08:57:04.170Z,8.34
2023-04-02T08:59:40.055Z,8.80
2023-04-02T09:02:12.196Z,9.15
2023-04-02T09:04:40.907Z,9.00
2023-04-02T09:07:13.454Z,9.66
2023-04-02T09:09:40.357Z,9.86
2023-04-02T09:12:17.675Z,9.96
2023-04-02T09:15:04.520Z,9.62
2023-04-02T09:17:39.755Z,10.36
2023-04-02T09:20:18.446Z,10.57
2023-04-02T09:22:47.267Z,10.56
2023-04-02T09:25:19.001Z,9.36
2023-04-02T09:27:49.762Z,9.02
2023-04-02T09:30:31.377Z,10.28
2023-04-02T09:33:07.262Z,10.63
2023-04-02T09:35:36.830Z,10.60
2023-04-02T09:38:28.941Z,10.27
2023-04-02T09:40:55.272Z,10.86
2023-04-02T09:43:26.780Z,11.29
2023-04-02T09:46:05.814Z,11.60
2023-04-02T09:48:39.394Z,11.97
2023-04-02T09:51:21.660Z,10.84
2023-04-02T09:54:04.656Z,11.35
2023-04-02T09:56:36.689Z,10.93
2023-04-02T09:59:13.573Z,11.71
2023-04-02T10:01:41.459Z,10.38
2023-04-02T10:04:34.096Z,11.45
2023-04-02T10:07:00.509Z,12.16
2023-04-02T10:09:36.292Z,12.38
2023-04-02T10:12:06.675Z,12.57
2023-04-02T10:14:45.677Z,12.38
2023-04-02T10:17:17.790Z,12.37
2023-04-02T10:19:55.028Z,12.97
2023-04-02T10:22:23.215Z,13.18
2023-04-02T10:24:50.734Z,13.36
2023-04-02T10:27:39.540Z,13.37
2023-04-02T10:30:19.140Z,13.31
2023-04-02T10:33:03.583Z,12.89
2023-04-02T10:35:46.194Z,13.48
2023-04-02T10:38:34.629Z,13.51
2023-04-02T10:41:18.992Z,13.57
2023-04-02T10:44:06.446Z,13.46
2023-04-02T10:47:08.011Z,13.21
2023-04-02T10:50:02.218Z,12.63
2023-04-02T10:52:33.114Z,12.89
2023-04-02T10:55:13.365Z,13.42
2023-04-02T10:57:41.664Z,13.46
2023-04-02T11:00:11.216Z,13.38
2023-04-02T11:03:01.053Z,12.82
2023-04-02T11:05:50.340Z,12.45
2023-04-02T11:08:25.793Z,12.83
2023-04-02T11:10:52.113Z,12.49
2023-04-02T11:13:26.897Z,11.88
2023-04-02T11:15:53.811Z,13.02
2023-04-02T11:18:27.647Z,11.94
2023-04-02T11:21:00.819Z,13.42
2023-04-02T11:23:30.594Z,12.47
2023-04-02T11:26:29.797Z,11.97
2023-04-02T11:29:15.009Z,13.90
2023-04-02T11:31:43.289Z,13.11
2023-04-02T11:34:13.806Z,13.88
2023-04-02T11:36:55.377Z,13.89
2023-04-02T11:39:53.912Z,12.75
2023-04-02T11:42:33.661Z,12.02
2023-04-02T11:45:26.418Z,12.16
2023-04-02T11:48:02.187Z,11.88
2023-04-02T11:50:41.290Z,13.75
2023-04-02T11:53:11.486Z,13.91
2023-04-02T11:55:43.583Z,14.07
2023-04-02T11:58:34.477Z,14.07
2023-04-02T12:01:22.624Z,14.53
2023-04-02T12:04:14.252Z,12.93
2023-04-02T12:06:46.738Z,12.92
2023-04-02T12:09:21.097Z,13.33
2023-04-02T12:11:49.163Z,14.67
2023-04-02T12:14:35.301Z,14.14
2023-04-02T12:17:15.358Z,14.03
2023-04-02T12:19:50.345Z,13.70
2023-04-02T12:22:23.753Z,14.60
2023-04-02T12:24:50.977Z,14.36
2023-04-02T12:27:24.005Z,14.28
2023-04-02T12:29:51.535Z,13.23
2023-04-02T12:32:32.718Z,13.73
2023-04-02T12:35:04.594Z,13.66
2023-04-02T12:37:31.078Z,14.51
2023-04-02T12:40:00.315Z,14.04
2023-04-02T12:42:33.560Z,13.41
2023-04-02T12:45:00.625Z,13.55
2023-04-02T12:47:28.007Z,13.56
2023-04-02T12:49:56.841Z,13.37
2023-04-02T12:52:28.625Z,14.44
2023-04-02T12:55:00.768Z,14.63
2023-04-02T12:57:30.056Z,14.23
2023-04-02T13:00:01.455Z,14.10
2023-04-02T13:02:30.948Z,13.64
2023-04-02T13:05:01.384Z,13.58
2023-04-02T13:07:33.395Z,14.05
2023-04-02T13:10:01.711Z,14.33
2023-04-02T13:12:37.449Z,14.02
2023-04-02T13:15:06.766Z,14.56
2023-04-02T13:17:42.416Z,14.28
2023-04-02T13:20:38.535Z,14.56
2023-04-02T13:23:23.858Z,15.17
2023-04-02T13:25:50.429Z,14.39
2023-04-02T13:28:16.940Z,14.68
2023-04-02T13:30:43.400Z,14.56
2023-04-02T13:33:09.810Z,14.89
2023-04-02T13:35:36.433Z,14.43
2023-04-02T13:38:03.943Z,14.34
2023-04-02T13:40:31.080Z,14.42
2023-04-02T13:42:57.604Z,14.97
2023-04-02T13:45:31.358Z,14.68
2023-04-02T13:48:01.002Z,15.13
2023-04-02T13:50:29.874Z,14.78
2023-04-02T13:52:59.293Z,14.85
2023-04-02T13:55:30.289Z,14.32
2023-04-02T13:57:57.340Z,14.65
2023-04-02T14:00:24.060Z,14.61
2023-04-02T14:02:59.115Z,14.17
2023-04-02T14:05:30.648Z,14.50
2023-04-02T14:08:02.525Z,14.47
2023-04-02T14:10:40.844Z,13.74
2023-04-02T14:13:28.920Z,14.12
2023-04-02T14:16:05.894Z,13.83
2023-04-02T14:18:50.891Z,14.08
2023-04-02T14:21:35.699Z,14.07
2023-04-02T14:24:27.976Z,14.23
2023-04-02T14:27:00.344Z,13.46
2023-04-02T14:29:53.944Z,13.96
2023-04-02T14:32:41.579Z,13.72
2023-04-02T14:35:13.832Z,13.72
2023-04-02T14:37:57.999Z,14.01
2023-04-02T14:40:35.630Z,14.33
2023-04-02T14:43:11.652Z,13.99
2023-04-02T14:45:58.514Z,13.71
2023-04-02T14:48:30.838Z,13.62
2023-04-02T14:51:06.235Z,13.69
2023-04-02T14:53:48.922Z,13.75
2023-04-02T14:56:17.714Z,13.60
2023-04-02T14:58:48.659Z,13.40
2023-04-02T15:01:25.443Z,13.37
2023-04-02T15:04:10.908Z,13.77
2023-04-02T15:06:43.648Z,13.82
2023-04-02T15:09:19.154Z,13.53
2023-04-02T15:11:52.764Z,13.96
2023-04-02T15:14:34.972Z,13.81
2023-04-02T15:17:01.446Z,14.10
2023-04-02T15:19:27.819Z,13.97
2023-04-02T15:22:18.430Z,14.02
2023-04-02T15:25:20.950Z,14.07
2023-04-02T15:28:31.907Z,14.47
2023-04-02T15:31:05.946Z,13.99
2023-04-02T15:33:43.405Z,13.64
2023-04-02T15:36:36.819Z,13.77
2023-04-02T15:39:35.025Z,13.96
2023-04-02T15:42:14.808Z,13.98
2023-04-02T15:44:56.142Z,14.09
2023-04-02T15:47:36.876Z,13.85
2023-04-02T15:50:44.709Z,13.77
2023-04-02T15:53:39.250Z,14.18
2023-04-02T15:56:45.194Z,13.85
2023-04-02T15:59:34.763Z,12.85
2023-04-02T16:02:07.269Z,13.34
2023-04-02T16:04:42.737Z,12.96
2023-04-02T16:07:40.641Z,13.25
2023-04-02T16:10:40.926Z,13.09
2023-04-02T16:13:35.576Z,12.95
2023-04-02T16:16:08.297Z,12.68
2023-04-02T16:18:59.113Z,12.65
2023-04-02T16:21:32.436Z,12.59
2023-04-02T16:23:59.034Z,12.62
2023-04-02T16:26:58.875Z,12.41
2023-04-02T16:29:53.324Z,12.82
2023-04-02T16:32:59.979Z,12.28
2023-04-02T16:38:22.182Z,12.55
2023-04-02T16:41:08.744Z,12.55
2023-04-02T16:43:57.551Z,12.12
2023-04-02T16:46:39.843Z,11.84
2023-04-02T16:49:12.357Z,11.60
2023-04-02T16:51:44.664Z,11.58
2023-04-02T16:54:35.553Z,11.44
2023-04-02T16:57:01.901Z,10.93
2023-04-02T16:59:53.424Z,11.01
2023-04-02T17:02:43.050Z,11.47
2023-04-02T17:05:49.849Z,10.96
2023-04-02T17:08:30.133Z,10.68
2023-04-02T17:11:09.742Z,10.49
2023-04-02T17:13:41.848Z,10.47
2023-04-02T17:16:28.023Z,10.38
2023-04-02T17:18:58.331Z,10.33
2023-04-02T17:21:27.250Z,10.04
2023-04-02T17:24:11.767Z,9.89
2023-04-02T17:26:38.448Z,9.86
2023-04-02T17:29:12.769Z,9.60
2023-04-02T17:31:40.956Z,9.47
2023-04-02T17:34:16.937Z,9.64
2023-04-02T17:36:55.508Z,9.47
2023-04-02T17:39:35.552Z,9.44
2023-04-02T17:42:07.954Z,9.24
2023-04-02T17:44:56.217Z,9.17
2023-04-02T17:47:28.844Z,8.98
2023-04-02T17:50:16.829Z,8.78
2023-04-02T17:52:59.685Z,9.00
2023-04-02T17:55:34.145Z,8.70
2023-04-02T17:58:19.279Z,8.40
2023-04-02T18:01:04.873Z,8.59
2023-04-02T18:03:47.487Z,8.42
2023-04-02T18:06:24.882Z,8.31
2023-04-02T18:09:00.529Z,8.10
2023-04-02T18:11:57.449Z,8.14
2023-04-02T18:14:46.300Z,8.24
2023-04-02T18:17:44.675Z,8.18
2023-04-02T18:20:28.662Z,7.86
2023-04-02T18:23:08.115Z,7.98
2023-04-02T18:25:49.479Z,7.70
2023-04-02T18:28:21.726Z,7.65
2023-04-02T18:31:12.488Z,7.36
2023-04-02T18:34:06.758Z,7.39
2023-04-02T18:36:59.458Z,7.43
2023-04-02T18:39:45.301Z,7.32
2023-04-02T18:42:14.708Z,7.29
2023-04-02T18:45:03.146Z,7.16
2023-04-02T18:48:04.170Z,7.06
2023-04-02T18:50:34.179Z,7.06
2023-04-02T18:53:16.440Z,7.20
2023-04-02T18:55:56.761Z,7.24
2023-04-02T18:58:29.661Z,7.34
2023-04-02T19:00:58.304Z,7.15
2023-04-02T19:03:39.665Z,7.01
2023-04-02T19:06:11.590Z,6.98
2023-04-02T19:08:56.421Z,6.75
2023-04-02T19:11:31.618Z,6.59
2023-04-02T19:14:17.022Z,6.76
2023-04-02T19:17:02.561Z,6.79
2023-04-02T19:19:37.988Z,6.69
2023-04-02T19:22:29.636Z,6.66
2023-04-02T19:25:17.572Z,6.77
2023-04-02T19:27:53.785Z,6.67
2023-04-02T19:30:57.182Z,6.47
2023-04-02T19:33:39.082Z,6.43
2023-04-02T19:36:27.616Z,6.50
2023-04-02T19:39:28.108Z,6.40
2023-04-02T19:42:06.731Z,6.63
2023-04-02T19:44:33.272Z,6.47
2023-04-02T19:46:59.890Z,6.46
2023-04-02T19:49:30.447Z,6.24
2023-04-02T19:51:57.049Z,6.44
2023-04-02T19:54:23.494Z,6.23
2023-04-02T19:56:50.119Z,6.43
2023-04-02T19:59:18.430Z,6.18
2023-04-02T20:01:46.458Z,6.40
2023-04-02T20:04:13.171Z,6.30
2023-04-02T20:06:39.667Z,6.03
2023-04-02T20:09:07.465Z,6.09
2023-04-02T20:11:36.072Z,5.84
2023-04-02T20:14:02.489Z,5.84
2023-04-02T20:16:28.998Z,5.94
2023-04-02T20:18:55.776Z,5.94
2023-04-02T20:21:22.196Z,6.02
2023-04-02T20:23:53.320Z,5.94
2023-04-02T20:26:19.782Z,5.66
2023-04-02T20:28:46.374Z,5.62
2023-04-02T20:31:16.089Z,5.71
2023-04-02T20:33:44.214Z,5.48
2023-04-02T20:36:13.474Z,5.53
2023-04-02T20:38:39.899Z,5.53
2023-04-02T20:41:07.588Z,5.45
2023-04-02T20:43:34.595Z,5.47
2023-04-02T20:46:04.478Z,5.42
2023-04-02T20:48:32.275Z,5.37
2023-04-02T20:51:01.047Z,5.21
2023-04-02T20:53:32.336Z,5.14
2023-04-02T20:56:13.017Z,5.16
2023-04-02T20:58:40.580Z,5.27
2023-04-02T21:01:14.078Z,5.07
2023-04-02T21:03:40.728Z,5.13
2023-04-02T21:06:19.091Z,5.12
2023-04-02T21:08:46.104Z,5.11
2023-04-02T21:11:13.137Z,5.22
2023-04-02T21:13:42.416Z,4.99
2023-04-02T21:16:19.421Z,5.19
2023-04-02T21:18:46.895Z,4.96
2023-04-02T21:21:14.451Z,4.88
2023-04-02T21:23:42.767Z,4.86
2023-04-02T21:26:12.581Z,4.83
2023-04-02T21:28:38.995Z,4.69
2023-04-02T21:31:07.080Z,4.84
2023-04-02T21:33:42.009Z,4.79
2023-04-02T21:36:16.714Z,4.76
2023-04-02T21:38:49.247Z,4.86
2023-04-02T21:41:22.276Z,4.74
2023-04-02T21:43:49.004Z,4.49
2023-04-02T21:46:17.707Z,4.77
2023-04-02T21:48:44.663Z,4.83
2023-04-02T21:51:14.089Z,4.79
2023-04-02T21:53:41.067Z,4.71
2023-04-02T21:56:11.300Z,4.63
2023-04-02T21:58:37.802Z,4.73
2023-04-02T22:01:07.144Z,4.71
2023-04-02T22:03:35.673Z,4.67
2023-04-02T22:06:10.412Z,4.74
2023-04-02T22:08:38.313Z,4.57
2023-04-02T22:11:06.603Z,4.51
2023-04-02T22:13:33.455Z,4.26
2023-04-02T22:16:02.043Z,4.34
2023-04-02T22:18:28.413Z,4.38
2023-04-02T22:20:56.630Z,4.38
2023-04-02T22:23:25.535Z,4.47
2023-04-02T22:25:56.899Z,4.16
2023-04-02T22:28:23.570Z,4.35
2023-04-02T22:30:51.098Z,4.34
2023-04-02T22:33:17.666Z,4.18
2023-04-02T22:35:44.453Z,4.23
2023-04-02T22:38:11.143Z,4.20
2023-04-02T22:40:37.931Z,4.17
2023-04-02T22:43:04.514Z,4.27
2023-04-02T22:45:30.897Z,4.06
2023-04-02T22:47:57.273Z,4.07
2023-04-02T22:50:24.193Z,4.06
2023-04-02T22:52:50.590Z,3.98
2023-04-02T22:55:17.920Z,3.93
2023-04-02T22:57:44.991Z,3.96
2023-04-02T23:00:15.243Z,4.01
2023-04-02T23:02:42.126Z,3.86
2023-04-02T23:05:08.929Z,3.83
2023-04-02T23:07:35.389Z,3.91
2023-04-02T23:10:03.944Z,3.91
2023-04-02T23:12:31.803Z,3.56
2023-04-02T23:14:58.231Z,3.78
2023-04-02T23:17:24.649Z,3.83
2023-04-02T23:19:51.047Z,3.71
2023-04-02T23:22:17.488Z,3.63
2023-04-02T23:24:43.858Z,3.67
2023-04-02T23:27:10.218Z,3.63
2023-04-02T23:29:36.664Z,3.50
2023-04-02T23:32:03.079Z,3.52
2023-04-02T23:34:29.458Z,3.36
2023-04-02T23:36:55.896Z,3.34
2023-04-02T23:39:22.953Z,3.35
2023-04-02T23:41:49.348Z,3.34
2023-04-02T23:44:15.857Z,3.35
2023-04-02T23:46:42.352Z,3.27
2023-04-02T23:49:11.062Z,3.20
2023-04-02T23:51:37.406Z,3.12
2023-04-02T23:54:04.027Z,2.95
2023-04-02T23:56:30.490Z,3.20
2023-04-02T23:58:56.963Z,2.99
